createdAt,value
2023-03-15T00:01:18.896Z,0.30
2023-03-15T00:03:48.942Z,0.30
2023-03-15T00:06:18.414Z,0.30
2023-03-15T00:08:48.156Z,0.38
2023-03-15T00:11:25.611Z,0.30
2023-03-15T00:13:56.574Z,0.20
2023-03-15T00:16:27.354Z,0.30
2023-03-15T00:19:13.578Z,0.13
2023-03-15T00:21:44.008Z,0.32
2023-03-15T00:24:12.908Z,0.20
2023-03-15T00:26:43.411Z,0.30
2023-03-15T00:29:12.185Z,0.20
2023-03-15T00:31:55.372Z,0.20
2023-03-15T00:37:20.820Z,0.10
2023-03-15T00:39:50.312Z,0.10
2023-03-15T00:42:20.591Z,0.00
2023-03-15T00:44:51.531Z,0.10
2023-03-15T00:47:22.175Z,0.10
2023-03-15T00:49:52.273Z,0.10
2023-03-15T00:52:22.289Z,0.20
2023-03-15T00:54:53.971Z,0.10
2023-03-15T00:57:28.792Z,0.03
2023-03-15T00:59:57.687Z,0.10
2023-03-15T01:02:26.818Z,0.10
2023-03-15T01:04:55.750Z,0.08
2023-03-15T01:07:24.654Z,0.00
2023-03-15T01:09:53.840Z,0.00
2023-03-15T01:12:22.555Z,0.08
2023-03-15T01:14:57.401Z,0.00
2023-03-15T01:17:27.044Z,0.17
2023-03-15T01:19:55.857Z,0.10
2023-03-15T01:22:26.078Z,0.08
2023-03-15T01:24:55.498Z,0.10
2023-03-15T01:27:24.903Z,0.20
2023-03-15T01:29:56.015Z,0.10
2023-03-15T01:32:27.114Z,0.10
2023-03-15T01:34:56.415Z,0.08
2023-03-15T01:37:26.899Z,0.00
2023-03-15T01:39:56.808Z,0.10
2023-03-15T01:42:26.173Z,0.00
2023-03-15T01:45:00.986Z,0.17
2023-03-15T01:47:30.164Z,0.00
2023-03-15T01:50:04.271Z,0.10
2023-03-15T01:52:38.249Z,0.10
2023-03-15T01:55:11.495Z,0.10
2023-03-15T01:57:44.145Z,0.10
2023-03-15T02:00:25.706Z,0.03
2023-03-15T02:02:59.943Z,0.10
2023-03-15T02:05:35.157Z,0.20
2023-03-15T02:08:05.438Z,0.10
2023-03-15T02:10:40.260Z,0.17
2023-03-15T02:13:09.754Z,0.10
2023-03-15T02:15:47.423Z,0.10
2023-03-15T02:18:16.709Z,0.10
2023-03-15T02:20:58.046Z,0.15
2023-03-15T02:23:28.137Z,0.22
2023-03-15T02:26:07.722Z,0.50
2023-03-15T02:28:38.101Z,0.40
2023-03-15T02:31:07.810Z,0.60
2023-03-15T02:33:42.507Z,0.80
2023-03-15T02:36:16.873Z,0.50
2023-03-15T02:38:45.753Z,0.45
2023-03-15T02:41:22.594Z,0.30
2023-03-15T02:44:02.951Z,0.40
2023-03-15T02:46:31.896Z,0.20
2023-03-15T02:49:01.554Z,0.30
2023-03-15T02:51:32.466Z,0.50
2023-03-15T02:54:01.189Z,0.40
2023-03-15T02:56:34.065Z,0.50
2023-03-15T02:59:04.185Z,0.40
2023-03-15T03:01:33.408Z,0.30
2023-03-15T03:04:01.865Z,0.40
2023-03-15T03:06:32.180Z,0.40
2023-03-15T03:09:04.985Z,0.40
2023-03-15T03:11:34.382Z,0.50
2023-03-15T03:14:04.952Z,0.45
2023-03-15T03:16:33.953Z,0.30
2023-03-15T03:19:02.708Z,0.37
2023-03-15T03:21:32.120Z,0.30
2023-03-15T03:24:00.835Z,0.60
2023-03-15T03:26:32.946Z,0.60
2023-03-15T03:29:02.319Z,0.27
2023-03-15T03:31:34.998Z,0.60
2023-03-15T03:34:05.299Z,0.40
2023-03-15T03:36:35.778Z,0.30
2023-03-15T03:39:05.150Z,0.50
2023-03-15T03:41:33.921Z,0.20
2023-03-15T03:44:04.005Z,0.40
2023-03-15T03:46:34.539Z,0.80
2023-03-15T03:49:03.290Z,0.50
2023-03-15T03:51:34.317Z,0.52
2023-03-15T03:54:03.318Z,0.75
2023-03-15T03:56:32.366Z,0.67
2023-03-15T03:59:01.318Z,0.50
2023-03-15T04:01:30.192Z,0.60
2023-03-15T04:04:00.474Z,0.60
2023-03-15T04:06:28.875Z,0.60
2023-03-15T04:08:59.713Z,0.63
2023-03-15T04:11:28.813Z,0.50
2023-03-15T04:14:03.770Z,0.57
2023-03-15T04:16:34.798Z,0.67
2023-03-15T04:19:05.511Z,0.77
2023-03-15T04:21:35.422Z,0.80
2023-03-15T04:24:04.520Z,0.67
2023-03-15T04:26:34.842Z,0.67
2023-03-15T04:29:04.465Z,0.60
2023-03-15T04:31:38.696Z,1.00
2023-03-15T04:34:09.195Z,0.90
2023-03-15T04:36:38.167Z,0.95
2023-03-15T04:39:09.996Z,0.93
2023-03-15T04:41:39.565Z,1.10
2023-03-15T04:44:09.056Z,1.20
2023-03-15T04:46:38.076Z,1.48
2023-03-15T04:49:08.375Z,1.60
2023-03-15T04:51:36.800Z,1.83
2023-03-15T04:54:05.552Z,1.90
2023-03-15T04:56:39.201Z,1.70
2023-03-15T04:59:11.119Z,1.30
2023-03-15T05:01:41.548Z,1.60
2023-03-15T05:04:12.159Z,1.30
2023-03-15T05:06:41.986Z,1.13
2023-03-15T05:09:18.457Z,1.37
2023-03-15T05:11:51.364Z,1.30
2023-03-15T05:14:19.856Z,0.97
2023-03-15T05:16:55.404Z,0.97
2023-03-15T05:19:29.007Z,0.83
2023-03-15T05:22:04.855Z,1.10
2023-03-15T05:24:33.905Z,1.27
2023-03-15T05:27:03.823Z,1.00
2023-03-15T05:29:33.525Z,1.23
2023-03-15T05:32:07.869Z,1.00
2023-03-15T05:34:39.320Z,1.03
2023-03-15T05:37:10.056Z,1.02
2023-03-15T05:39:43.006Z,1.40
2023-03-15T05:42:12.618Z,1.10
2023-03-15T05:44:41.694Z,1.80
2023-03-15T05:47:12.989Z,1.20
2023-03-15T05:49:44.478Z,1.13
2023-03-15T05:52:14.837Z,1.07
2023-03-15T05:54:43.735Z,1.27
2023-03-15T05:57:12.649Z,1.20
2023-03-15T05:59:45.140Z,1.23
2023-03-15T06:02:21.832Z,1.27
2023-03-15T06:04:52.441Z,1.80
2023-03-15T06:07:22.314Z,1.50
2023-03-15T06:09:52.317Z,1.50
2023-03-15T06:12:22.019Z,1.73
2023-03-15T06:14:51.009Z,1.67
2023-03-15T06:17:19.734Z,1.60
2023-03-15T06:19:51.749Z,1.60
2023-03-15T06:22:20.863Z,2.10
2023-03-15T06:24:49.903Z,1.50
2023-03-15T06:27:22.374Z,1.73
2023-03-15T06:29:51.825Z,1.57
2023-03-15T06:32:20.512Z,2.00
2023-03-15T06:34:50.634Z,1.60
2023-03-15T06:37:28.875Z,1.97
2023-03-15T06:40:04.392Z,2.00
2023-03-15T06:42:33.115Z,1.60
2023-03-15T06:45:02.315Z,1.70
2023-03-15T06:47:31.499Z,1.80
2023-03-15T06:50:01.447Z,1.80
2023-03-15T06:52:30.908Z,1.60
2023-03-15T06:54:59.365Z,1.50
2023-03-15T06:57:30.262Z,1.80
2023-03-15T06:59:59.326Z,1.83
2023-03-15T07:02:28.047Z,1.52
2023-03-15T07:04:57.818Z,1.40
2023-03-15T07:07:28.323Z,1.38
2023-03-15T07:09:59.525Z,3.33
2023-03-15T07:12:29.184Z,28.85
2023-03-15T07:14:57.864Z,19.80
2023-03-15T07:17:29.007Z,9.77
2023-03-15T07:19:57.424Z,2.92
2023-03-15T07:22:28.218Z,1.08
2023-03-15T07:24:57.460Z,1.70
2023-03-15T07:27:26.619Z,1.13
2023-03-15T07:29:58.746Z,1.05
2023-03-15T07:32:27.534Z,2.90
2023-03-15T07:35:00.767Z,1.17
2023-03-15T07:37:31.905Z,1.10
2023-03-15T07:40:10.112Z,1.20
2023-03-15T07:42:40.071Z,1.25
2023-03-15T07:45:10.580Z,1.20
2023-03-15T07:47:41.286Z,1.20
2023-03-15T07:50:14.548Z,1.27
2023-03-15T07:52:47.155Z,1.45
2023-03-15T07:55:15.895Z,1.60
2023-03-15T07:57:44.748Z,1.10
2023-03-15T08:00:14.847Z,0.80
2023-03-15T08:02:43.281Z,1.02
2023-03-15T08:05:15.634Z,1.10
2023-03-15T08:07:46.448Z,1.10
2023-03-15T08:10:16.149Z,0.80
2023-03-15T08:12:45.025Z,0.90
2023-03-15T08:15:17.602Z,0.88
2023-03-15T08:17:48.257Z,0.98
2023-03-15T08:20:19.515Z,0.82
2023-03-15T08:22:51.877Z,0.90
2023-03-15T08:25:24.467Z,0.90
2023-03-15T08:27:53.726Z,0.80
2023-03-15T08:30:23.334Z,1.00
2023-03-15T08:32:52.900Z,0.88
2023-03-15T08:35:23.610Z,0.80
2023-03-15T08:37:59.039Z,1.10
2023-03-15T08:40:27.608Z,0.70
2023-03-15T08:43:04.690Z,0.98
2023-03-15T08:45:51.024Z,0.70
2023-03-15T08:48:22.678Z,0.90
2023-03-15T08:50:51.748Z,0.80
2023-03-15T08:53:22.966Z,0.70
2023-03-15T08:55:51.793Z,0.57
2023-03-15T08:58:20.349Z,0.80
2023-03-15T09:00:51.608Z,1.10
2023-03-15T09:03:35.661Z,0.85
2023-03-15T09:06:04.439Z,0.98
2023-03-15T09:08:36.079Z,1.10
2023-03-15T09:11:05.995Z,1.17
2023-03-15T09:13:37.442Z,1.15
2023-03-15T09:18:35.752Z,1.05
2023-03-15T09:21:04.533Z,0.80
2023-03-15T09:23:36.309Z,0.85
2023-03-15T09:26:05.806Z,0.90
2023-03-15T09:28:34.501Z,0.98
2023-03-15T09:31:08.858Z,0.80
2023-03-15T09:33:37.793Z,1.00
2023-03-15T09:36:07.587Z,1.17
2023-03-15T09:38:40.184Z,1.00
2023-03-15T09:41:17.756Z,0.85
2023-03-15T09:43:59.253Z,0.70
2023-03-15T09:46:30.869Z,0.60
2023-03-15T09:49:06.990Z,0.90
2023-03-15T09:51:41.634Z,0.80
2023-03-15T09:54:14.291Z,0.68
2023-03-15T09:56:52.360Z,0.70
2023-03-15T09:59:23.298Z,0.73
2023-03-15T10:01:54.650Z,0.80
2023-03-15T10:04:31.326Z,0.82
2023-03-15T10:07:02.167Z,0.75
2023-03-15T10:09:34.760Z,0.63
2023-03-15T10:12:06.819Z,0.77
2023-03-15T10:14:53.097Z,0.57
2023-03-15T10:17:31.403Z,0.70
2023-03-15T10:20:06.875Z,0.68
2023-03-15T10:22:42.397Z,0.63
2023-03-15T10:25:18.398Z,0.60
2023-03-15T10:27:51.847Z,0.65
2023-03-15T10:30:23.028Z,0.50
2023-03-15T10:32:57.285Z,0.70
2023-03-15T10:35:26.407Z,0.50
2023-03-15T10:37:55.630Z,0.50
2023-03-15T10:40:46.527Z,0.60
2023-03-15T10:43:26.253Z,0.57
2023-03-15T10:46:03.728Z,0.45
2023-03-15T10:48:34.241Z,0.63
2023-03-15T10:51:06.406Z,1.00
2023-03-15T10:53:35.589Z,0.80
2023-03-15T10:56:09.024Z,0.80
2023-03-15T10:59:02.307Z,0.70
2023-03-15T11:01:37.790Z,0.60
2023-03-15T11:04:17.098Z,0.80
2023-03-15T11:06:49.362Z,0.55
2023-03-15T11:09:19.687Z,0.80
2023-03-15T11:12:02.097Z,0.70
2023-03-15T11:14:37.131Z,0.60
2023-03-15T11:17:08.284Z,0.60
2023-03-15T11:19:43.336Z,0.60
2023-03-15T11:22:15.776Z,0.70
2023-03-15T11:24:45.237Z,0.65
2023-03-15T11:27:18.497Z,0.60
2023-03-15T11:29:52.867Z,0.80
2023-03-15T11:32:24.508Z,0.60
2023-03-15T11:35:01.398Z,0.77
2023-03-15T11:37:35.001Z,0.60
2023-03-15T11:40:15.560Z,0.70
2023-03-15T11:42:52.843Z,0.50
2023-03-15T11:45:28.675Z,0.50
2023-03-15T11:48:01.184Z,0.50
2023-03-15T11:50:30.194Z,0.40
2023-03-15T11:53:03.718Z,0.50
2023-03-15T11:55:44.652Z,0.43
2023-03-15T11:58:34.851Z,0.73
2023-03-15T12:01:05.049Z,0.63
2023-03-15T12:03:41.021Z,0.40
2023-03-15T12:06:48.425Z,0.47
2023-03-15T12:09:52.310Z,0.55
2023-03-15T12:12:42.699Z,0.45
2023-03-15T12:15:48.904Z,0.50
2023-03-15T12:18:27.317Z,0.52
2023-03-15T12:21:12.562Z,0.43
2023-03-15T12:23:48.858Z,0.43
2023-03-15T12:26:27.548Z,0.60
2023-03-15T12:29:08.916Z,0.40
2023-03-15T12:31:59.408Z,0.50
2023-03-15T12:34:39.050Z,0.40
2023-03-15T12:37:11.257Z,0.52
2023-03-15T12:39:46.475Z,0.40
2023-03-15T12:42:35.211Z,0.50
2023-03-15T12:45:39.369Z,0.50
2023-03-15T12:48:28.491Z,0.50
2023-03-15T12:51:02.092Z,0.40
2023-03-15T12:53:53.672Z,0.40
2023-03-15T12:59:09.132Z,0.20
2023-03-15T13:01:38.183Z,0.47
2023-03-15T13:04:07.091Z,0.60
2023-03-15T13:07:05.548Z,0.60
2023-03-15T13:09:57.757Z,0.30
2023-03-15T13:12:32.227Z,0.30
2023-03-15T13:15:07.755Z,0.30
2023-03-15T13:17:43.526Z,0.57
2023-03-15T13:20:23.294Z,0.40
2023-03-15T13:23:06.336Z,0.40
2023-03-15T13:25:40.097Z,0.47
2023-03-15T13:28:19.129Z,0.38
2023-03-15T13:30:52.833Z,0.50
2023-03-15T13:33:24.707Z,0.30
2023-03-15T13:36:01.620Z,0.30
2023-03-15T13:38:34.457Z,0.30
2023-03-15T13:41:05.214Z,0.40
2023-03-15T13:43:37.078Z,0.30
2023-03-15T13:46:06.845Z,0.40
2023-03-15T13:48:38.373Z,0.30
2023-03-15T13:51:11.097Z,0.40
2023-03-15T13:53:49.986Z,0.40
2023-03-15T13:56:21.724Z,0.50
2023-03-15T14:01:19.832Z,0.40
2023-03-15T14:03:54.276Z,0.30
2023-03-15T14:06:25.656Z,0.50
2023-03-15T14:11:38.479Z,0.30
2023-03-15T14:17:05.953Z,0.40
2023-03-15T14:19:36.374Z,0.32
2023-03-15T14:22:15.554Z,0.40
2023-03-15T14:24:48.655Z,0.32
2023-03-15T14:27:22.645Z,0.40
2023-03-15T14:29:55.625Z,0.30
2023-03-15T14:32:30.568Z,0.40
2023-03-15T14:35:03.550Z,0.38
2023-03-15T14:37:38.170Z,0.30
2023-03-15T14:40:21.199Z,0.40
2023-03-15T14:42:53.668Z,0.40
2023-03-15T14:45:25.441Z,0.40
2023-03-15T14:47:57.791Z,0.43
2023-03-15T14:50:29.825Z,0.40
2023-03-15T14:53:00.067Z,0.40
2023-03-15T14:55:35.062Z,0.43
2023-03-15T14:58:04.711Z,0.38
2023-03-15T15:00:35.174Z,0.43
2023-03-15T15:03:06.036Z,0.40
2023-03-15T15:05:37.125Z,0.40
2023-03-15T15:08:11.021Z,0.40
2023-03-15T15:10:42.133Z,0.30
2023-03-15T15:13:20.873Z,0.47
2023-03-15T15:15:55.635Z,0.40
2023-03-15T15:18:26.412Z,0.30
2023-03-15T15:20:56.666Z,0.50
2023-03-15T15:23:28.143Z,0.40
2023-03-15T15:28:35.961Z,0.30
2023-03-15T15:31:09.901Z,0.45
2023-03-15T15:33:40.380Z,0.40
2023-03-15T15:36:15.554Z,0.43
2023-03-15T15:38:44.395Z,0.50
2023-03-15T15:41:17.850Z,0.50
2023-03-15T15:43:49.503Z,0.40
2023-03-15T15:46:18.353Z,0.32
2023-03-15T15:48:50.295Z,0.40
2023-03-15T15:51:27.644Z,0.47
2023-03-15T15:53:58.711Z,0.50
2023-03-15T15:56:34.865Z,0.40
2023-03-15T15:59:05.555Z,0.45
2023-03-15T16:01:36.594Z,0.50
2023-03-15T16:04:10.572Z,0.30
2023-03-15T16:06:39.620Z,0.50
2023-03-15T16:09:11.187Z,0.50
2023-03-15T16:14:20.209Z,0.57
2023-03-15T16:16:50.996Z,0.40
2023-03-15T16:19:21.834Z,0.65
2023-03-15T16:21:54.609Z,0.40
2023-03-15T16:24:27.590Z,0.40
2023-03-15T16:27:02.794Z,0.57
2023-03-15T16:29:38.263Z,0.68
2023-03-15T16:32:18.041Z,0.40
2023-03-15T16:34:50.625Z,0.60
2023-03-15T16:37:24.085Z,0.50
2023-03-15T16:39:55.910Z,0.60
2023-03-15T16:42:26.972Z,0.65
2023-03-15T16:44:56.038Z,0.68
2023-03-15T16:47:24.727Z,0.70
2023-03-15T16:49:54.846Z,0.50
2023-03-15T16:52:23.391Z,0.70
2023-03-15T16:54:52.136Z,0.60
2023-03-15T16:57:25.839Z,0.70
2023-03-15T16:59:56.178Z,0.63
2023-03-15T17:02:26.576Z,1.05
2023-03-15T17:04:55.278Z,1.30
2023-03-15T17:07:27.945Z,1.50
2023-03-15T17:09:57.634Z,1.40
2023-03-15T17:12:28.331Z,1.60
2023-03-15T17:15:01.193Z,1.70
2023-03-15T17:17:34.245Z,1.92
2023-03-15T17:20:06.527Z,1.80
2023-03-15T17:22:35.828Z,1.60
2023-03-15T17:25:04.903Z,1.58
2023-03-15T17:27:36.808Z,1.50
2023-03-15T17:30:16.918Z,1.50
2023-03-15T17:32:49.048Z,1.40
2023-03-15T17:35:19.541Z,1.20
2023-03-15T17:37:48.933Z,1.13
2023-03-15T17:40:24.094Z,1.20
2023-03-15T17:42:54.063Z,1.40
2023-03-15T17:45:26.596Z,2.00
2023-03-15T17:47:56.422Z,1.48
2023-03-15T17:50:26.959Z,0.80
2023-03-15T17:52:58.422Z,0.77
2023-03-15T17:57:56.656Z,0.82
2023-03-15T18:00:32.724Z,0.70
2023-03-15T18:03:02.959Z,0.90
2023-03-15T18:05:32.955Z,0.70
2023-03-15T18:08:04.265Z,0.60
2023-03-15T18:10:36.957Z,0.95
2023-03-15T18:13:06.539Z,0.70
2023-03-15T18:15:37.176Z,0.82
2023-03-15T18:18:06.745Z,0.60
2023-03-15T18:20:35.187Z,0.70
2023-03-15T18:23:04.606Z,0.60
2023-03-15T18:25:35.988Z,0.80
2023-03-15T18:28:05.086Z,0.63
2023-03-15T18:30:34.307Z,0.90
2023-03-15T18:33:05.964Z,0.70
2023-03-15T18:38:04.301Z,0.75
2023-03-15T18:40:35.009Z,0.80
2023-03-15T18:43:05.658Z,0.88
2023-03-15T18:45:39.224Z,1.10
2023-03-15T18:48:11.088Z,0.77
2023-03-15T18:53:08.142Z,1.40
2023-03-15T18:55:36.872Z,1.02
2023-03-15T18:58:09.295Z,1.30
2023-03-15T19:00:39.218Z,1.00
2023-03-15T19:03:12.230Z,1.15
2023-03-15T19:05:42.412Z,0.93
2023-03-15T19:08:11.122Z,0.95
2023-03-15T19:10:42.558Z,0.90
2023-03-15T19:13:11.550Z,0.80
2023-03-15T19:15:40.383Z,1.15
2023-03-15T19:18:11.440Z,2.38
2023-03-15T19:20:39.870Z,1.33
2023-03-15T19:23:08.739Z,0.82
2023-03-15T19:25:37.467Z,0.90
2023-03-15T19:28:06.851Z,1.17
2023-03-15T19:30:35.571Z,2.08
2023-03-15T19:33:04.356Z,1.63
2023-03-15T19:35:34.796Z,1.00
2023-03-15T19:38:04.263Z,0.70
2023-03-15T19:40:33.263Z,0.93
2023-03-15T19:43:02.154Z,0.85
2023-03-15T19:45:31.210Z,1.02
2023-03-15T19:47:59.954Z,0.80
2023-03-15T19:50:32.034Z,0.82
2023-03-15T19:53:02.287Z,0.90
2023-03-15T19:55:31.852Z,1.05
2023-03-15T19:58:00.718Z,1.20
2023-03-15T20:00:30.343Z,1.30
2023-03-15T20:03:06.900Z,1.42
2023-03-15T20:05:37.290Z,1.65
2023-03-15T20:08:08.622Z,1.42
2023-03-15T20:10:39.204Z,0.95
2023-03-15T20:13:10.418Z,1.00
2023-03-15T20:15:39.578Z,0.98
2023-03-15T20:18:10.761Z,1.10
2023-03-15T20:20:40.344Z,1.00
2023-03-15T20:23:10.569Z,1.00
2023-03-15T20:25:39.564Z,1.00
2023-03-15T20:28:08.095Z,1.13
2023-03-15T20:30:42.285Z,0.63
2023-03-15T20:33:12.413Z,1.05
2023-03-15T20:35:46.076Z,0.88
2023-03-15T20:38:16.985Z,1.25
2023-03-15T20:40:46.673Z,1.00
2023-03-15T20:43:15.451Z,0.98
2023-03-15T20:45:44.361Z,1.20
2023-03-15T20:48:13.816Z,0.98
2023-03-15T20:50:44.439Z,1.00
2023-03-15T20:53:14.933Z,1.13
2023-03-15T20:55:46.491Z,1.20
2023-03-15T20:58:15.550Z,1.00
2023-03-15T21:00:45.504Z,1.00
2023-03-15T21:03:15.583Z,0.90
2023-03-15T21:05:46.270Z,1.30
2023-03-15T21:08:18.650Z,1.30
2023-03-15T21:10:49.222Z,0.95
2023-03-15T21:13:21.344Z,1.63
2023-03-15T21:15:50.947Z,1.20
2023-03-15T21:18:22.014Z,1.13
2023-03-15T21:20:58.563Z,1.63
2023-03-15T21:23:31.274Z,1.52
2023-03-15T21:26:03.934Z,1.60
2023-03-15T21:28:33.824Z,1.05
2023-03-15T21:31:02.537Z,0.73
2023-03-15T21:33:31.950Z,0.70
2023-03-15T21:36:01.542Z,0.70
2023-03-15T21:38:32.284Z,0.98
2023-03-15T21:41:09.394Z,0.90
2023-03-15T21:43:39.168Z,0.85
2023-03-15T21:46:10.129Z,0.90
2023-03-15T21:48:39.068Z,0.70
2023-03-15T21:51:08.686Z,0.80
2023-03-15T21:53:38.943Z,0.77
2023-03-15T21:56:10.831Z,0.73
2023-03-15T21:58:39.384Z,0.80
2023-03-15T22:01:10.060Z,0.95
2023-03-15T22:03:39.541Z,1.23
2023-03-15T22:06:08.869Z,1.30
2023-03-15T22:08:37.556Z,0.98
2023-03-15T22:11:06.906Z,0.77
2023-03-15T22:13:38.215Z,0.70
2023-03-15T22:16:07.423Z,0.82
2023-03-15T22:18:35.811Z,1.00
2023-03-15T22:21:05.078Z,0.90
2023-03-15T22:23:36.122Z,0.75
2023-03-15T22:26:04.697Z,0.93
2023-03-15T22:28:33.360Z,0.50
2023-03-15T22:31:04.350Z,0.90
2023-03-15T22:33:33.288Z,0.80
2023-03-15T22:36:03.520Z,0.97
2023-03-15T22:38:38.060Z,0.50
2023-03-15T22:41:09.523Z,0.95
2023-03-15T22:43:41.079Z,1.08
2023-03-15T22:46:12.084Z,0.90
2023-03-15T22:48:40.700Z,0.70
2023-03-15T22:51:11.014Z,0.80
2023-03-15T22:53:39.821Z,0.70
2023-03-15T22:56:09.103Z,0.60
2023-03-15T22:58:38.437Z,0.90
2023-03-15T23:01:07.360Z,0.50
2023-03-15T23:03:37.454Z,0.60
2023-03-15T23:06:06.667Z,0.60
2023-03-15T23:08:35.395Z,0.80
2023-03-15T23:11:04.430Z,0.80
2023-03-15T23:13:32.792Z,0.87
2023-03-15T23:16:04.131Z,0.73
2023-03-15T23:18:34.488Z,0.73
2023-03-15T23:21:09.987Z,0.83
2023-03-15T23:23:39.116Z,0.77
2023-03-15T23:26:09.240Z,0.50
2023-03-15T23:28:38.252Z,0.63
2023-03-15T23:31:09.316Z,0.57
2023-03-15T23:33:39.592Z,0.75
2023-03-15T23:36:11.246Z,0.60
2023-03-15T23:41:08.854Z,0.67
2023-03-15T23:43:37.646Z,0.50
2023-03-15T23:46:07.299Z,0.90
2023-03-15T23:48:36.333Z,0.50
2023-03-15T23:51:05.478Z,0.70
2023-03-15T23:53:36.327Z,0.80
2023-03-15T23:56:06.043Z,0.45
2023-03-15T23:58:34.613Z,0.60
